Bethesda, MD (20813)

7:38 AM EST on December 06, 2016 (GMT -0500)
Woodmont Triangle | | Change Station

Elev 338 ft 38.99 °N, 77.10 °W | Updated 2 seconds ago

Overcast
Overcast
42.2 °F
Feels Like 42 °F
N
0.0
Wind Variable Wind from SW
Gusts 1.0 mph

Today
High -- | Low -- °F
--% Chance of Precip.
Yesterday
High -- | Low -- °F
Precip. -- in
Pressure 30.10 in
Visibility 10.0 miles
Clouds Few 12000 ft
Overcast 14000 ft
Windchill 42 °F
Dew Point 33 °F
Humidity 69%
Rainfall 0.00 in
Snow Depth Not available.
7:13 AM 4:45 PM
Waxing Crescent, 41% visible
METAR KDCA 061152Z 07005KT 10SM FEW120 OVC140 07/01 A3010 RMK AO2 SLP191 T00670006 10072 20061 58005
Pressure 30.10 in
Visibility 10.0 miles
Clouds Few 12000 ft
Overcast 14000 ft
Windchill 42 °F
Dew Point 33 °F
Humidity 69%
Rainfall 0.00 in
Snow Depth Not available.
7:13 AM 4:45 PM
Waxing Crescent, 41% visible
METAR KDCA 061152Z 07005KT 10SM FEW120 OVC140 07/01 A3010 RMK AO2 SLP191 T00670006 10072 20061 58005

10-Day Weather Forecast

Almanac

Astronomy

Dec. 06, 2016 Rise Set
Actual Time
Civil Twilight
Nautical Twilight
Astronomical Twilight
Moon
Length of Visible Light
Length of Day
Tomorrow will be .
, % of the Moon is Illuminated

Today's Extremes

State Highs State Lows

Community

WunderPhotos

Upload Photos

1,955,936 photos uploaded!

WunderBlog® & News

Nearby

Air Quality

  Air Quality AQ Index Pollutant
Not available.

Snow Depth

Station Depth Elevation

Earthquake Activity

City Distance Mag. Time & Date
Minimum magnitude displayed is 2.5.

Coastal Water Temperatures

Place Temperature

Stations

Nearby Weather Stations

Station Location Temp. Windchill Dew Point Humidity Wind Precip. Elev Updated Type
                   

Watches & Warnings

There are currently no watches in effect.